sensor_id;sensor_type;location;lat;lon;timestamp;P1;durP1;ratioP1;P2;durP2;ratioP2
53903;SDS011;39812;52.430;16.936;2023-04-30T00:02:16;22.92;;;11.45;;
53903;SDS011;39812;52.430;16.936;2023-04-30T00:04:42;22.80;;;12.00;;
53903;SDS011;39812;52.430;16.936;2023-04-30T00:07:07;18.48;;;9.88;;
53903;SDS011;39812;52.430;16.936;2023-04-30T00:09:33;24.05;;;11.55;;
53903;SDS011;39812;52.430;16.936;2023-04-30T00:11:59;17.25;;;10.30;;
53903;SDS011;39812;52.430;16.936;2023-04-30T00:14:24;18.13;;;11.00;;
53903;SDS011;39812;52.430;16.936;2023-04-30T00:16:50;19.40;;;10.82;;
53903;SDS011;39812;52.430;16.936;2023-04-30T00:19:15;16.88;;;9.98;;
53903;SDS011;39812;52.430;16.936;2023-04-30T00:21:41;19.13;;;10.55;;
53903;SDS011;39812;52.430;16.936;2023-04-30T00:24:07;12.43;;;8.05;;
53903;SDS011;39812;52.430;16.936;2023-04-30T00:26:32;16.30;;;9.93;;
53903;SDS011;39812;52.430;16.936;2023-04-30T00:28:58;16.05;;;8.15;;
53903;SDS011;39812;52.430;16.936;2023-04-30T00:31:23;18.00;;;9.40;;
53903;SDS011;39812;52.430;16.936;2023-04-30T00:33:49;19.63;;;10.13;;
53903;SDS011;39812;52.430;16.936;2023-04-30T00:36:15;13.95;;;8.18;;
53903;SDS011;39812;52.430;16.936;2023-04-30T00:38:41;18.58;;;9.20;;
53903;SDS011;39812;52.430;16.936;2023-04-30T00:41:06;15.80;;;8.48;;
53903;SDS011;39812;52.430;16.936;2023-04-30T00:43:32;17.58;;;9.30;;
53903;SDS011;39812;52.430;16.936;2023-04-30T00:45:58;16.23;;;8.27;;
53903;SDS011;39812;52.430;16.936;2023-04-30T00:48:24;18.13;;;8.93;;
53903;SDS011;39812;52.430;16.936;2023-04-30T00:50:50;14.73;;;8.07;;
53903;SDS011;39812;52.430;16.936;2023-04-30T00:53:16;12.43;;;6.72;;
53903;SDS011;39812;52.430;16.936;2023-04-30T00:55:43;13.18;;;7.93;;
53903;SDS011;39812;52.430;16.936;2023-04-30T00:58:09;13.88;;;8.15;;
53903;SDS011;39812;52.430;16.936;2023-04-30T01:00:35;13.38;;;7.18;;
53903;SDS011;39812;52.430;16.936;2023-04-30T01:03:01;16.35;;;8.43;;
53903;SDS011;39812;52.430;16.936;2023-04-30T01:05:28;15.15;;;8.88;;
53903;SDS011;39812;52.430;16.936;2023-04-30T01:07:53;12.70;;;7.35;;
53903;SDS011;39812;52.430;16.936;2023-04-30T01:10:20;13.52;;;8.15;;
53903;SDS011;39812;52.430;16.936;2023-04-30T01:13:02;16.05;;;8.55;;
53903;SDS011;39812;52.430;16.936;2023-04-30T01:18:46;17.70;;;8.43;;
53903;SDS011;39812;52.430;16.936;2023-04-30T01:21:15;15.82;;;8.38;;
53903;SDS011;39812;52.430;16.936;2023-04-30T01:26:41;14.23;;;7.57;;
53903;SDS011;39812;52.430;16.936;2023-04-30T01:29:15;13.48;;;7.90;;
53903;SDS011;39812;52.430;16.936;2023-04-30T01:31:43;16.17;;;7.90;;
53903;SDS011;39812;52.430;16.936;2023-04-30T01:34:09;13.65;;;6.93;;
53903;SDS011;39812;52.430;16.936;2023-04-30T01:39:56;15.82;;;7.75;;
53903;SDS011;39812;52.430;16.936;2023-04-30T01:48:02;14.98;;;8.02;;
53903;SDS011;39812;52.430;16.936;2023-04-30T01:50:51;12.13;;;7.07;;
53903;SDS011;39812;52.430;16.936;2023-04-30T01:53:23;14.00;;;7.53;;
53903;SDS011;39812;52.430;16.936;2023-04-30T01:56:15;14.73;;;7.85;;
53903;SDS011;39812;52.430;16.936;2023-04-30T01:58:49;16.25;;;8.77;;
53903;SDS011;39812;52.430;16.936;2023-04-30T02:01:27;15.10;;;7.38;;
53903;SDS011;39812;52.430;16.936;2023-04-30T02:03:54;13.43;;;7.82;;
53903;SDS011;39812;52.430;16.936;2023-04-30T02:06:20;15.43;;;7.40;;
53903;SDS011;39812;52.430;16.936;2023-04-30T02:08:47;11.98;;;6.75;;
53903;SDS011;39812;52.430;16.936;2023-04-30T02:11:12;12.70;;;7.60;;
53903;SDS011;39812;52.430;16.936;2023-04-30T02:13:38;14.65;;;7.78;;
53903;SDS011;39812;52.430;16.936;2023-04-30T02:16:03;12.70;;;7.80;;
53903;SDS011;39812;52.430;16.936;2023-04-30T02:18:29;14.23;;;7.30;;
53903;SDS011;39812;52.430;16.936;2023-04-30T02:20:55;14.05;;;7.60;;
53903;SDS011;39812;52.430;16.936;2023-04-30T02:23:20;12.70;;;7.22;;
53903;SDS011;39812;52.430;16.936;2023-04-30T02:25:46;13.73;;;6.80;;
53903;SDS011;39812;52.430;16.936;2023-04-30T02:28:12;12.10;;;6.95;;
53903;SDS011;39812;52.430;16.936;2023-04-30T02:30:37;14.23;;;7.20;;
53903;SDS011;39812;52.430;16.936;2023-04-30T02:33:03;17.73;;;7.10;;
53903;SDS011;39812;52.430;16.936;2023-04-30T02:35:29;12.68;;;7.60;;
53903;SDS011;39812;52.430;16.936;2023-04-30T02:37:54;17.55;;;8.30;;
53903;SDS011;39812;52.430;16.936;2023-04-30T02:40:20;15.15;;;7.38;;
53903;SDS011;39812;52.430;16.936;2023-04-30T02:42:45;16.63;;;6.78;;
53903;SDS011;39812;52.430;16.936;2023-04-30T02:45:12;13.10;;;6.47;;
53903;SDS011;39812;52.430;16.936;2023-04-30T02:47:37;12.57;;;7.20;;
53903;SDS011;39812;52.430;16.936;2023-04-30T02:50:03;15.07;;;7.07;;
53903;SDS011;39812;52.430;16.936;2023-04-30T02:52:31;13.57;;;6.88;;
53903;SDS011;39812;52.430;16.936;2023-04-30T02:54:56;15.43;;;6.82;;
53903;SDS011;39812;52.430;16.936;2023-04-30T02:57:22;10.50;;;7.40;;
53903;SDS011;39812;52.430;16.936;2023-04-30T02:59:48;13.82;;;7.15;;
53903;SDS011;39812;52.430;16.936;2023-04-30T03:02:13;11.43;;;5.88;;
53903;SDS011;39812;52.430;16.936;2023-04-30T03:04:39;12.88;;;6.63;;
53903;SDS011;39812;52.430;16.936;2023-04-30T03:07:05;16.77;;;7.40;;
53903;SDS011;39812;52.430;16.936;2023-04-30T03:09:30;13.68;;;7.15;;
53903;SDS011;39812;52.430;16.936;2023-04-30T03:11:56;13.65;;;7.75;;
53903;SDS011;39812;52.430;16.936;2023-04-30T03:14:22;13.35;;;7.10;;
53903;SDS011;39812;52.430;16.936;2023-04-30T03:16:47;12.68;;;5.90;;
53903;SDS011;39812;52.430;16.936;2023-04-30T03:19:13;10.07;;;6.47;;
53903;SDS011;39812;52.430;16.936;2023-04-30T03:21:39;14.32;;;6.78;;
53903;SDS011;39812;52.430;16.936;2023-04-30T03:24:05;14.27;;;6.35;;
53903;SDS011;39812;52.430;16.936;2023-04-30T03:26:31;13.02;;;6.13;;
53903;SDS011;39812;52.430;16.936;2023-04-30T03:28:56;10.85;;;6.20;;
53903;SDS011;39812;52.430;16.936;2023-04-30T03:31:22;16.45;;;6.30;;
53903;SDS011;39812;52.430;16.936;2023-04-30T03:33:48;10.95;;;5.80;;
53903;SDS011;39812;52.430;16.936;2023-04-30T03:36:13;13.05;;;6.82;;
53903;SDS011;39812;52.430;16.936;2023-04-30T03:38:39;12.40;;;6.40;;
53903;SDS011;39812;52.430;16.936;2023-04-30T03:41:06;12.68;;;6.30;;
53903;SDS011;39812;52.430;16.936;2023-04-30T03:43:32;13.15;;;6.20;;
53903;SDS011;39812;52.430;16.936;2023-04-30T03:45:58;11.32;;;5.47;;
53903;SDS011;39812;52.430;16.936;2023-04-30T03:48:23;9.35;;;5.30;;
53903;SDS011;39812;52.430;16.936;2023-04-30T03:50:49;14.52;;;7.00;;
53903;SDS011;39812;52.430;16.936;2023-04-30T03:53:14;13.43;;;6.07;;
53903;SDS011;39812;52.430;16.936;2023-04-30T03:55:40;11.13;;;5.38;;
53903;SDS011;39812;52.430;16.936;2023-04-30T03:58:06;12.23;;;6.28;;
53903;SDS011;39812;52.430;16.936;2023-04-30T04:00:32;14.02;;;6.68;;
53903;SDS011;39812;52.430;16.936;2023-04-30T04:02:58;13.00;;;5.55;;
53903;SDS011;39812;52.430;16.936;2023-04-30T04:05:23;9.63;;;5.43;;
53903;SDS011;39812;52.430;16.936;2023-04-30T04:07:50;12.75;;;6.30;;
53903;SDS011;39812;52.430;16.936;2023-04-30T04:10:15;10.02;;;5.93;;
53903;SDS011;39812;52.430;16.936;2023-04-30T04:12:42;11.85;;;6.05;;
53903;SDS011;39812;52.430;16.936;2023-04-30T04:15:08;11.07;;;6.07;;
53903;SDS011;39812;52.430;16.936;2023-04-30T04:17:33;12.45;;;5.75;;
53903;SDS011;39812;52.430;16.936;2023-04-30T04:19:59;8.95;;;5.80;;
53903;SDS011;39812;52.430;16.936;2023-04-30T04:22:25;14.98;;;6.50;;
53903;SDS011;39812;52.430;16.936;2023-04-30T04:24:50;10.95;;;5.95;;
53903;SDS011;39812;52.430;16.936;2023-04-30T04:27:16;11.93;;;6.32;;
53903;SDS011;39812;52.430;16.936;2023-04-30T04:29:42;11.65;;;6.40;;
53903;SDS011;39812;52.430;16.936;2023-04-30T05:18:29;14.48;;;5.35;;
53903;SDS011;39812;52.430;16.936;2023-04-30T05:20:55;9.55;;;4.70;;
53903;SDS011;39812;52.430;16.936;2023-04-30T05:23:20;7.97;;;4.53;;
53903;SDS011;39812;52.430;16.936;2023-04-30T05:25:50;12.07;;;4.75;;
53903;SDS011;39812;52.430;16.936;2023-04-30T05:28:16;9.15;;;4.32;;
53903;SDS011;39812;52.430;16.936;2023-04-30T05:30:42;5.97;;;3.67;;
53903;SDS011;39812;52.430;16.936;2023-04-30T05:33:07;9.80;;;3.63;;
53903;SDS011;39812;52.430;16.936;2023-04-30T05:35:33;10.38;;;4.32;;
53903;SDS011;39812;52.430;16.936;2023-04-30T05:38:00;8.18;;;4.53;;
53903;SDS011;39812;52.430;16.936;2023-04-30T05:40:27;11.65;;;4.10;;
53903;SDS011;39812;52.430;16.936;2023-04-30T05:42:53;9.07;;;3.90;;
53903;SDS011;39812;52.430;16.936;2023-04-30T05:45:19;8.55;;;3.80;;
53903;SDS011;39812;52.430;16.936;2023-04-30T05:47:44;7.97;;;3.30;;
53903;SDS011;39812;52.430;16.936;2023-04-30T05:50:10;12.82;;;3.13;;
53903;SDS011;39812;52.430;16.936;2023-04-30T05:52:36;14.30;;;3.53;;
53903;SDS011;39812;52.430;16.936;2023-04-30T05:55:02;6.82;;;2.90;;
53903;SDS011;39812;52.430;16.936;2023-04-30T05:57:29;7.70;;;3.03;;
53903;SDS011;39812;52.430;16.936;2023-04-30T05:59:54;6.18;;;2.55;;
53903;SDS011;39812;52.430;16.936;2023-04-30T06:02:20;6.80;;;3.05;;
53903;SDS011;39812;52.430;16.936;2023-04-30T06:04:46;8.77;;;2.95;;
53903;SDS011;39812;52.430;16.936;2023-04-30T06:07:12;7.65;;;3.00;;
53903;SDS011;39812;52.430;16.936;2023-04-30T06:09:37;6.45;;;3.33;;
53903;SDS011;39812;52.430;16.936;2023-04-30T06:12:03;4.95;;;2.83;;
53903;SDS011;39812;52.430;16.936;2023-04-30T06:14:29;8.88;;;2.53;;
53903;SDS011;39812;52.430;16.936;2023-04-30T06:16:55;7.40;;;2.75;;
53903;SDS011;39812;52.430;16.936;2023-04-30T06:19:21;5.93;;;2.85;;
53903;SDS011;39812;52.430;16.936;2023-04-30T06:21:46;5.25;;;2.70;;
53903;SDS011;39812;52.430;16.936;2023-04-30T06:24:12;8.13;;;4.25;;
53903;SDS011;39812;52.430;16.936;2023-04-30T06:26:38;8.98;;;3.35;;
53903;SDS011;39812;52.430;16.936;2023-04-30T06:29:03;6.60;;;2.78;;
53903;SDS011;39812;52.430;16.936;2023-04-30T06:31:29;6.20;;;2.50;;
53903;SDS011;39812;52.430;16.936;2023-04-30T06:33:55;4.43;;;2.55;;
53903;SDS011;39812;52.430;16.936;2023-04-30T06:36:20;6.07;;;2.63;;
53903;SDS011;39812;52.430;16.936;2023-04-30T06:38:46;4.78;;;2.72;;
53903;SDS011;39812;52.430;16.936;2023-04-30T06:41:12;6.45;;;3.08;;
53903;SDS011;39812;52.430;16.936;2023-04-30T06:43:38;7.53;;;2.42;;
53903;SDS011;39812;52.430;16.936;2023-04-30T06:46:03;5.80;;;2.05;;
53903;SDS011;39812;52.430;16.936;2023-04-30T06:48:30;8.80;;;2.30;;
53903;SDS011;39812;52.430;16.936;2023-04-30T06:50:56;7.68;;;2.65;;
53903;SDS011;39812;52.430;16.936;2023-04-30T06:53:22;4.97;;;2.53;;
53903;SDS011;39812;52.430;16.936;2023-04-30T06:55:47;4.00;;;1.90;;
53903;SDS011;39812;52.430;16.936;2023-04-30T06:58:13;3.58;;;2.67;;
53903;SDS011;39812;52.430;16.936;2023-04-30T07:00:39;6.22;;;2.53;;
53903;SDS011;39812;52.430;16.936;2023-04-30T07:03:05;5.13;;;1.98;;
53903;SDS011;39812;52.430;16.936;2023-04-30T07:05:31;4.72;;;2.00;;
53903;SDS011;39812;52.430;16.936;2023-04-30T07:07:57;6.00;;;2.30;;
53903;SDS011;39812;52.430;16.936;2023-04-30T07:10:25;3.88;;;2.20;;
53903;SDS011;39812;52.430;16.936;2023-04-30T07:12:50;4.55;;;1.95;;
53903;SDS011;39812;52.430;16.936;2023-04-30T07:15:16;4.47;;;2.22;;
53903;SDS011;39812;52.430;16.936;2023-04-30T07:17:42;4.90;;;2.35;;
53903;SDS011;39812;52.430;16.936;2023-04-30T07:20:08;11.27;;;1.90;;
53903;SDS011;39812;52.430;16.936;2023-04-30T07:22:33;10.07;;;2.25;;
53903;SDS011;39812;52.430;16.936;2023-04-30T07:24:59;4.82;;;1.75;;
53903;SDS011;39812;52.430;16.936;2023-04-30T07:27:28;6.40;;;2.40;;
53903;SDS011;39812;52.430;16.936;2023-04-30T07:29:54;3.35;;;1.90;;
53903;SDS011;39812;52.430;16.936;2023-04-30T07:32:20;7.07;;;1.80;;
53903;SDS011;39812;52.430;16.936;2023-04-30T07:34:46;3.47;;;1.77;;
53903;SDS011;39812;52.430;16.936;2023-04-30T07:37:12;5.45;;;1.88;;
53903;SDS011;39812;52.430;16.936;2023-04-30T07:39:38;7.93;;;2.50;;
53903;SDS011;39812;52.430;16.936;2023-04-30T07:42:04;10.43;;;2.50;;
53903;SDS011;39812;52.430;16.936;2023-04-30T07:44:30;7.10;;;2.60;;
53903;SDS011;39812;52.430;16.936;2023-04-30T07:46:56;7.95;;;3.03;;
53903;SDS011;39812;52.430;16.936;2023-04-30T07:49:21;5.15;;;2.15;;
53903;SDS011;39812;52.430;16.936;2023-04-30T07:51:47;8.43;;;2.58;;
53903;SDS011;39812;52.430;16.936;2023-04-30T07:54:13;8.13;;;2.38;;
53903;SDS011;39812;52.430;16.936;2023-04-30T07:56:38;3.67;;;1.90;;
53903;SDS011;39812;52.430;16.936;2023-04-30T07:59:04;4.35;;;2.55;;
53903;SDS011;39812;52.430;16.936;2023-04-30T08:01:30;10.48;;;2.60;;
53903;SDS011;39812;52.430;16.936;2023-04-30T08:03:56;2.60;;;1.80;;
53903;SDS011;39812;52.430;16.936;2023-04-30T08:06:21;6.78;;;1.98;;
53903;SDS011;39812;52.430;16.936;2023-04-30T08:08:47;6.85;;;2.10;;
53903;SDS011;39812;52.430;16.936;2023-04-30T08:11:13;6.55;;;2.38;;
53903;SDS011;39812;52.430;16.936;2023-04-30T08:13:40;4.90;;;1.90;;
53903;SDS011;39812;52.430;16.936;2023-04-30T08:16:06;3.75;;;1.85;;
53903;SDS011;39812;52.430;16.936;2023-04-30T08:18:31;5.45;;;2.08;;
53903;SDS011;39812;52.430;16.936;2023-04-30T08:20:58;6.55;;;2.17;;
53903;SDS011;39812;52.430;16.936;2023-04-30T08:23:24;4.57;;;2.30;;
53903;SDS011;39812;52.430;16.936;2023-04-30T08:25:50;7.82;;;1.80;;
53903;SDS011;39812;52.430;16.936;2023-04-30T08:28:16;6.22;;;2.53;;
53903;SDS011;39812;52.430;16.936;2023-04-30T08:30:42;3.83;;;1.75;;
53903;SDS011;39812;52.430;16.936;2023-04-30T08:33:08;4.15;;;2.13;;
53903;SDS011;39812;52.430;16.936;2023-04-30T08:35:34;7.18;;;2.38;;
53903;SDS011;39812;52.430;16.936;2023-04-30T08:37:59;4.10;;;1.77;;
53903;SDS011;39812;52.430;16.936;2023-04-30T08:40:25;4.32;;;2.00;;
53903;SDS011;39812;52.430;16.936;2023-04-30T08:43:07;5.32;;;2.40;;
53903;SDS011;39812;52.430;16.936;2023-04-30T08:45:34;5.13;;;1.70;;
53903;SDS011;39812;52.430;16.936;2023-04-30T08:48:05;3.63;;;1.77;;
53903;SDS011;39812;52.430;16.936;2023-04-30T08:50:39;4.53;;;2.08;;
53903;SDS011;39812;52.430;16.936;2023-04-30T08:53:05;4.68;;;1.98;;
53903;SDS011;39812;52.430;16.936;2023-04-30T08:55:32;5.60;;;1.77;;
53903;SDS011;39812;52.430;16.936;2023-04-30T08:57:59;7.22;;;2.17;;
53903;SDS011;39812;52.430;16.936;2023-04-30T09:00:24;4.55;;;2.03;;
53903;SDS011;39812;52.430;16.936;2023-04-30T09:02:51;5.63;;;2.13;;
53903;SDS011;39812;52.430;16.936;2023-04-30T09:05:17;9.88;;;2.13;;
53903;SDS011;39812;52.430;16.936;2023-04-30T09:07:43;4.45;;;1.92;;
53903;SDS011;39812;52.430;16.936;2023-04-30T09:10:17;3.30;;;1.48;;
53903;SDS011;39812;52.430;16.936;2023-04-30T09:12:57;5.43;;;1.98;;
53903;SDS011;39812;52.430;16.936;2023-04-30T09:15:27;2.95;;;1.85;;
53903;SDS011;39812;52.430;16.936;2023-04-30T09:20:35;8.23;;;1.50;;
53903;SDS011;39812;52.430;16.936;2023-04-30T09:23:08;4.63;;;2.55;;
53903;SDS011;39812;52.430;16.936;2023-04-30T09:25:41;3.63;;;1.55;;
53903;SDS011;39812;52.430;16.936;2023-04-30T09:28:10;3.95;;;1.55;;
53903;SDS011;39812;52.430;16.936;2023-04-30T09:30:41;4.82;;;1.73;;
53903;SDS011;39812;52.430;16.936;2023-04-30T09:33:06;2.80;;;1.50;;
53903;SDS011;39812;52.430;16.936;2023-04-30T09:35:37;5.72;;;1.77;;
53903;SDS011;39812;52.430;16.936;2023-04-30T09:38:03;6.90;;;1.58;;
53903;SDS011;39812;52.430;16.936;2023-04-30T09:40:34;6.07;;;2.00;;
53903;SDS011;39812;52.430;16.936;2023-04-30T09:43:04;3.17;;;1.45;;
53903;SDS011;39812;52.430;16.936;2023-04-30T09:45:42;4.05;;;1.55;;
53903;SDS011;39812;52.430;16.936;2023-04-30T09:48:20;6.20;;;1.42;;
53903;SDS011;39812;52.430;16.936;2023-04-30T09:50:47;6.07;;;1.60;;
53903;SDS011;39812;52.430;16.936;2023-04-30T09:53:13;5.22;;;1.65;;
53903;SDS011;39812;52.430;16.936;2023-04-30T09:55:41;5.75;;;1.90;;
53903;SDS011;39812;52.430;16.936;2023-04-30T09:58:09;4.90;;;1.50;;
53903;SDS011;39812;52.430;16.936;2023-04-30T10:00:36;3.40;;;1.58;;
53903;SDS011;39812;52.430;16.936;2023-04-30T10:03:05;3.03;;;1.50;;
53903;SDS011;39812;52.430;16.936;2023-04-30T10:05:33;2.95;;;1.55;;
53903;SDS011;39812;52.430;16.936;2023-04-30T10:10:45;3.78;;;2.05;;
53903;SDS011;39812;52.430;16.936;2023-04-30T10:13:16;5.10;;;1.85;;
53903;SDS011;39812;52.430;16.936;2023-04-30T10:15:51;3.25;;;1.67;;
53903;SDS011;39812;52.430;16.936;2023-04-30T10:18:27;4.60;;;1.65;;
53903;SDS011;39812;52.430;16.936;2023-04-30T10:20:55;3.33;;;1.65;;
53903;SDS011;39812;52.430;16.936;2023-04-30T10:23:23;4.75;;;1.88;;
53903;SDS011;39812;52.430;16.936;2023-04-30T10:25:49;3.90;;;1.80;;
53903;SDS011;39812;52.430;16.936;2023-04-30T10:28:15;4.80;;;1.98;;
53903;SDS011;39812;52.430;16.936;2023-04-30T10:30:41;2.83;;;1.45;;
53903;SDS011;39812;52.430;16.936;2023-04-30T10:35:48;3.30;;;1.60;;
53903;SDS011;39812;52.430;16.936;2023-04-30T10:38:21;3.53;;;1.60;;
53903;SDS011;39812;52.430;16.936;2023-04-30T10:40:49;4.78;;;1.95;;
53903;SDS011;39812;52.430;16.936;2023-04-30T10:43:25;2.83;;;1.30;;
53903;SDS011;39812;52.430;16.936;2023-04-30T10:45:51;2.80;;;1.20;;
53903;SDS011;39812;52.430;16.936;2023-04-30T10:48:17;5.80;;;1.52;;
53903;SDS011;39812;52.430;16.936;2023-04-30T10:50:51;4.15;;;1.17;;
53903;SDS011;39812;52.430;16.936;2023-04-30T10:53:19;4.45;;;1.77;;
53903;SDS011;39812;52.430;16.936;2023-04-30T10:55:56;4.07;;;1.70;;
53903;SDS011;39812;52.430;16.936;2023-04-30T10:58:31;4.43;;;1.95;;
53903;SDS011;39812;52.430;16.936;2023-04-30T11:01:01;2.95;;;1.80;;
53903;SDS011;39812;52.430;16.936;2023-04-30T11:03:38;3.28;;;1.40;;
53903;SDS011;39812;52.430;16.936;2023-04-30T11:06:12;4.95;;;1.77;;
53903;SDS011;39812;52.430;16.936;2023-04-30T11:08:41;2.22;;;1.30;;
53903;SDS011;39812;52.430;16.936;2023-04-30T11:11:09;2.33;;;1.45;;
53903;SDS011;39812;52.430;16.936;2023-04-30T11:13:45;1.50;;;1.27;;
53903;SDS011;39812;52.430;16.936;2023-04-30T11:16:15;4.15;;;1.60;;
53903;SDS011;39812;52.430;16.936;2023-04-30T11:18:45;5.78;;;1.30;;
53903;SDS011;39812;52.430;16.936;2023-04-30T11:21:11;5.18;;;1.88;;
53903;SDS011;39812;52.430;16.936;2023-04-30T11:23:41;3.60;;;1.88;;
53903;SDS011;39812;52.430;16.936;2023-04-30T11:26:08;5.47;;;1.58;;
53903;SDS011;39812;52.430;16.936;2023-04-30T11:28:35;7.13;;;1.98;;
53903;SDS011;39812;52.430;16.936;2023-04-30T11:31:02;3.53;;;1.55;;
53903;SDS011;39812;52.430;16.936;2023-04-30T11:33:31;3.63;;;1.70;;
53903;SDS011;39812;52.430;16.936;2023-04-30T11:35:58;6.60;;;1.50;;
53903;SDS011;39812;52.430;16.936;2023-04-30T11:40:51;4.55;;;1.50;;
53903;SDS011;39812;52.430;16.936;2023-04-30T11:43:22;5.78;;;1.70;;
53903;SDS011;39812;52.430;16.936;2023-04-30T11:48:39;7.97;;;2.10;;
53903;SDS011;39812;52.430;16.936;2023-04-30T11:53:51;3.53;;;2.03;;
53903;SDS011;39812;52.430;16.936;2023-04-30T11:56:21;3.97;;;1.50;;
53903;SDS011;39812;52.430;16.936;2023-04-30T11:58:48;5.32;;;1.30;;
53903;SDS011;39812;52.430;16.936;2023-04-30T12:01:15;6.10;;;1.65;;
53903;SDS011;39812;52.430;16.936;2023-04-30T12:06:08;5.75;;;1.30;;
53903;SDS011;39812;52.430;16.936;2023-04-30T12:08:35;3.28;;;1.45;;
53903;SDS011;39812;52.430;16.936;2023-04-30T12:11:02;3.47;;;1.30;;
53903;SDS011;39812;52.430;16.936;2023-04-30T12:13:29;5.65;;;2.05;;
53903;SDS011;39812;52.430;16.936;2023-04-30T12:15:56;3.30;;;1.60;;
53903;SDS011;39812;52.430;16.936;2023-04-30T12:18:25;3.95;;;1.73;;
53903;SDS011;39812;52.430;16.936;2023-04-30T12:20:51;3.75;;;1.58;;
53903;SDS011;39812;52.430;16.936;2023-04-30T12:23:18;6.25;;;1.85;;
53903;SDS011;39812;52.430;16.936;2023-04-30T12:25:44;3.17;;;1.60;;
53903;SDS011;39812;52.430;16.936;2023-04-30T12:28:11;5.35;;;1.50;;
53903;SDS011;39812;52.430;16.936;2023-04-30T12:30:37;5.00;;;1.58;;
53903;SDS011;39812;52.430;16.936;2023-04-30T12:33:03;3.63;;;1.42;;
53903;SDS011;39812;52.430;16.936;2023-04-30T12:35:30;3.65;;;1.55;;
53903;SDS011;39812;52.430;16.936;2023-04-30T12:38:03;4.70;;;1.38;;
53903;SDS011;39812;52.430;16.936;2023-04-30T12:40:30;5.73;;;1.63;;
53903;SDS011;39812;52.430;16.936;2023-04-30T12:43:00;6.30;;;1.70;;
53903;SDS011;39812;52.430;16.936;2023-04-30T12:45:45;5.72;;;1.83;;
53903;SDS011;39812;52.430;16.936;2023-04-30T12:48:12;4.60;;;1.80;;
53903;SDS011;39812;52.430;16.936;2023-04-30T12:50:39;3.13;;;1.70;;
53903;SDS011;39812;52.430;16.936;2023-04-30T12:53:04;3.75;;;1.42;;
53903;SDS011;39812;52.430;16.936;2023-04-30T12:55:31;2.95;;;1.25;;
53903;SDS011;39812;52.430;16.936;2023-04-30T13:00:50;6.70;;;1.67;;
53903;SDS011;39812;52.430;16.936;2023-04-30T13:03:19;6.97;;;1.63;;
53903;SDS011;39812;52.430;16.936;2023-04-30T13:05:46;3.65;;;1.83;;
53903;SDS011;39812;52.430;16.936;2023-04-30T13:08:14;3.80;;;1.40;;
53903;SDS011;39812;52.430;16.936;2023-04-30T13:10:39;2.95;;;1.58;;
53903;SDS011;39812;52.430;16.936;2023-04-30T13:13:05;3.65;;;1.70;;
53903;SDS011;39812;52.430;16.936;2023-04-30T13:15:31;4.45;;;1.80;;
53903;SDS011;39812;52.430;16.936;2023-04-30T13:17:56;4.45;;;1.45;;
53903;SDS011;39812;52.430;16.936;2023-04-30T13:20:22;3.53;;;1.50;;
53903;SDS011;39812;52.430;16.936;2023-04-30T13:22:49;3.70;;;1.48;;
53903;SDS011;39812;52.430;16.936;2023-04-30T13:25:15;4.07;;;1.50;;
53903;SDS011;39812;52.430;16.936;2023-04-30T13:27:41;3.47;;;1.50;;
53903;SDS011;39812;52.430;16.936;2023-04-30T13:30:08;4.40;;;1.42;;
53903;SDS011;39812;52.430;16.936;2023-04-30T13:32:34;3.65;;;1.20;;
53903;SDS011;39812;52.430;16.936;2023-04-30T13:35:00;5.47;;;1.30;;
53903;SDS011;39812;52.430;16.936;2023-04-30T13:37:27;3.50;;;1.40;;
53903;SDS011;39812;52.430;16.936;2023-04-30T13:39:55;5.22;;;1.63;;
53903;SDS011;39812;52.430;16.936;2023-04-30T13:42:21;3.25;;;1.60;;
53903;SDS011;39812;52.430;16.936;2023-04-30T13:44:46;3.95;;;1.50;;
53903;SDS011;39812;52.430;16.936;2023-04-30T13:47:14;6.57;;;1.95;;
53903;SDS011;39812;52.430;16.936;2023-04-30T13:49:40;3.53;;;1.40;;
53903;SDS011;39812;52.430;16.936;2023-04-30T13:52:05;4.07;;;1.60;;
53903;SDS011;39812;52.430;16.936;2023-04-30T13:54:31;4.75;;;1.77;;
53903;SDS011;39812;52.430;16.936;2023-04-30T13:56:57;4.22;;;1.90;;
53903;SDS011;39812;52.430;16.936;2023-04-30T13:59:24;5.22;;;1.50;;
53903;SDS011;39812;52.430;16.936;2023-04-30T14:01:49;4.35;;;1.50;;
53903;SDS011;39812;52.430;16.936;2023-04-30T14:04:15;3.63;;;1.70;;
53903;SDS011;39812;52.430;16.936;2023-04-30T14:06:41;4.90;;;1.80;;
53903;SDS011;39812;52.430;16.936;2023-04-30T14:09:07;3.38;;;1.35;;
53903;SDS011;39812;52.430;16.936;2023-04-30T14:11:32;6.07;;;1.90;;
53903;SDS011;39812;52.430;16.936;2023-04-30T14:13:58;6.78;;;1.98;;
53903;SDS011;39812;52.430;16.936;2023-04-30T14:16:24;5.38;;;1.42;;
53903;SDS011;39812;52.430;16.936;2023-04-30T14:18:50;5.22;;;1.88;;
53903;SDS011;39812;52.430;16.936;2023-04-30T14:21:15;5.90;;;1.70;;
53903;SDS011;39812;52.430;16.936;2023-04-30T14:23:41;3.40;;;1.58;;
53903;SDS011;39812;52.430;16.936;2023-04-30T14:26:10;3.53;;;1.50;;
53903;SDS011;39812;52.430;16.936;2023-04-30T14:28:36;4.30;;;1.67;;
53903;SDS011;39812;52.430;16.936;2023-04-30T14:31:01;4.53;;;1.75;;
53903;SDS011;39812;52.430;16.936;2023-04-30T14:33:27;5.43;;;1.75;;
53903;SDS011;39812;52.430;16.936;2023-04-30T14:35:53;3.83;;;1.67;;
53903;SDS011;39812;52.430;16.936;2023-04-30T14:38:19;4.13;;;1.50;;
53903;SDS011;39812;52.430;16.936;2023-04-30T14:40:45;4.25;;;1.60;;
53903;SDS011;39812;52.430;16.936;2023-04-30T14:43:10;7.05;;;1.60;;
53903;SDS011;39812;52.430;16.936;2023-04-30T14:45:36;5.88;;;1.80;;
53903;SDS011;39812;52.430;16.936;2023-04-30T14:48:03;4.10;;;1.40;;
53903;SDS011;39812;52.430;16.936;2023-04-30T14:50:29;3.85;;;1.58;;
53903;SDS011;39812;52.430;16.936;2023-04-30T14:52:55;4.75;;;1.50;;
53903;SDS011;39812;52.430;16.936;2023-04-30T14:55:21;5.18;;;1.95;;
53903;SDS011;39812;52.430;16.936;2023-04-30T14:57:46;4.22;;;1.73;;
53903;SDS011;39812;52.430;16.936;2023-04-30T15:00:12;5.05;;;1.83;;
53903;SDS011;39812;52.430;16.936;2023-04-30T15:02:39;4.15;;;1.65;;
53903;SDS011;39812;52.430;16.936;2023-04-30T15:05:05;2.00;;;1.30;;
53903;SDS011;39812;52.430;16.936;2023-04-30T15:07:32;3.05;;;1.45;;
53903;SDS011;39812;52.430;16.936;2023-04-30T15:09:58;3.80;;;1.45;;
53903;SDS011;39812;52.430;16.936;2023-04-30T15:12:23;5.10;;;1.85;;
53903;SDS011;39812;52.430;16.936;2023-04-30T15:14:49;5.80;;;1.73;;
53903;SDS011;39812;52.430;16.936;2023-04-30T15:17:14;4.30;;;1.70;;
53903;SDS011;39812;52.430;16.936;2023-04-30T15:19:40;4.93;;;1.50;;
53903;SDS011;39812;52.430;16.936;2023-04-30T15:22:06;4.57;;;1.77;;
53903;SDS011;39812;52.430;16.936;2023-04-30T15:24:31;2.70;;;1.70;;
53903;SDS011;39812;52.430;16.936;2023-04-30T15:26:58;3.38;;;1.92;;
53903;SDS011;39812;52.430;16.936;2023-04-30T15:29:23;3.17;;;1.58;;
53903;SDS011;39812;52.430;16.936;2023-04-30T15:31:49;5.40;;;2.10;;
53903;SDS011;39812;52.430;16.936;2023-04-30T15:34:16;6.43;;;2.10;;
53903;SDS011;39812;52.430;16.936;2023-04-30T15:36:42;4.32;;;1.58;;
53903;SDS011;39812;52.430;16.936;2023-04-30T15:39:07;3.83;;;1.63;;
53903;SDS011;39812;52.430;16.936;2023-04-30T15:41:33;4.43;;;1.70;;
53903;SDS011;39812;52.430;16.936;2023-04-30T15:43:59;7.30;;;2.33;;
53903;SDS011;39812;52.430;16.936;2023-04-30T15:46:24;3.33;;;1.55;;
53903;SDS011;39812;52.430;16.936;2023-04-30T15:48:50;5.13;;;1.60;;
53903;SDS011;39812;52.430;16.936;2023-04-30T15:51:16;5.13;;;1.83;;
53903;SDS011;39812;52.430;16.936;2023-04-30T15:53:41;5.13;;;1.83;;